SCNT

Tte. Julio Gallardo Airport

Airport
ICAO code
SCNT
IATA Code
PNT
Summary
ICAO Region
CARSAM
ICAO Territory
Location

Puerto Natales, Magallanes y de la Antartica Chilena

Serving
Puerto Natales
Elevation
217 ft
Coordinates
51° 43' 60" S , 72° 31' 0" W
KCC
Metar
Observation
SCNT 041700Z 30011KT 9999 FEW005 SCT030 OVC200 14/12 Q0999
Station
TENIENTE GALLARD
Date/Time
2023-02-04 18:00:00
Wind direction
300°
Wind speed
11 kts
Lowest cloud amount
few clouds
Temperature
14°C
Dew point
12°C
Humidity
87%
QNH
999 hPa
Weather condition
n/a

Airport located 7 km north-northwest of Puerto Natales, Chile.

Climatology

Temperate oceanic climate (Köppen climate classification Cfb)

Runways

Designator Length Width Surface Rops
10/28 1764 30 ASP No/No

Airport map

Aerial View

SKYbrary Partners:

Safety knowledge contributed by: